Time;durP1;ratioP1;P1;durP2;ratioP2;P2;SDS_P1;SDS_P2;PMS_P1;PMS_P2;Temp;Humidity;BMP_temperature;BMP_pressure;BME280_temperature;BME280_humidity;BME280_pressure;Samples;Min_cycle;Max_cycle;Signal;HPM_P1;HPM_P2
2022/06/29 00:01:25;;;;;;;6.65;4.50;;;20.00;99.90;;;;;;6913553;28;20582;-78
2022/06/29 00:04:47;;;;;;;6.20;4.05;;;20.00;99.90;;;;;;6913583;28;20522;-78
2022/06/29 00:08:09;;;;;;;7.03;4.30;;;19.90;99.90;;;;;;6913428;28;20490;-78
2022/06/29 00:11:31;;;;;;;6.57;4.40;;;20.00;99.90;;;;;;6915107;28;20468;-78
2022/06/29 00:14:55;;;;;;;6.68;3.90;;;20.00;99.90;;;;;;6914086;28;20493;-79
2022/06/29 00:18:18;;;;;;;5.95;4.00;;;20.00;99.90;;;;;;6914275;28;20432;-79
2022/06/29 00:21:40;;;;;;;6.35;4.07;;;19.90;99.90;;;;;;6914386;28;20440;-78
2022/06/29 00:25:03;;;;;;;5.63;3.83;;;19.90;99.90;;;;;;6913382;28;20500;-78
2022/06/29 00:28:25;;;;;;;6.45;3.90;;;19.90;99.90;;;;;;6913449;28;20432;-79
2022/06/29 00:31:47;;;;;;;5.43;3.75;;;19.80;99.90;;;;;;6913885;28;20475;-79
2022/06/29 00:35:10;;;;;;;5.30;3.70;;;19.80;99.90;;;;;;6913080;28;20472;-81
2022/06/29 00:38:32;;;;;;;6.60;3.55;;;19.80;99.90;;;;;;6913490;28;20432;-79
2022/06/29 00:41:55;;;;;;;6.45;3.70;;;19.80;99.90;;;;;;6918034;28;20439;-78
2022/06/29 00:45:17;;;;;;;6.18;3.78;;;19.80;99.90;;;;;;6915037;28;20437;-78
2022/06/29 00:48:39;;;;;;;7.68;3.92;;;19.80;99.90;;;;;;6914274;28;20480;-77
2022/06/29 00:52:09;;;;;;;7.00;3.77;;;19.80;99.90;;;;;;6917267;28;20432;-78
2022/06/29 00:55:34;;;;;;;5.45;3.92;;;19.80;99.90;;;;;;6916224;28;20486;-78
2022/06/29 00:58:59;;;;;;;5.82;3.60;;;19.80;99.90;;;;;;6919123;28;20436;-78
2022/06/29 01:02:23;;;;;;;5.47;3.92;;;19.80;99.90;;;;;;6918725;28;20439;-78
2022/06/29 01:05:45;;;;;;;6.40;3.92;;;19.70;99.90;;;;;;6916883;28;20475;-79
2022/06/29 01:09:09;;;;;;;6.22;3.75;;;19.60;99.90;;;;;;6919503;28;20432;-79
2022/06/29 01:12:31;;;;;;;6.10;3.70;;;19.60;99.90;;;;;;6918344;28;20522;-79
2022/06/29 01:15:53;;;;;;;5.70;3.92;;;19.60;99.90;;;;;;6916627;28;20433;-79
2022/06/29 01:19:15;;;;;;;5.53;3.80;;;19.50;99.90;;;;;;6917373;28;20475;-79
2022/06/29 01:22:39;;;;;;;8.05;4.07;;;19.30;99.90;;;;;;6918639;28;20428;-78
2022/06/29 01:26:05;;;;;;;6.60;3.92;;;19.10;99.90;;;;;;6917015;28;20449;-78
2022/06/29 01:29:28;;;;;;;7.30;4.17;;;18.90;99.90;;;;;;6917940;28;20443;-79
2022/06/29 01:32:50;;;;;;;7.07;4.82;;;18.80;99.90;;;;;;6918352;28;20433;-78
2022/06/29 01:36:13;;;;;;;8.37;5.37;;;18.90;99.90;;;;;;6915966;28;20514;-79
2022/06/29 01:39:37;;;;;;;9.25;5.60;;;18.80;99.90;;;;;;6917269;28;20468;-78
2022/06/29 01:42:59;;;;;;;7.03;5.13;;;18.90;99.90;;;;;;6917341;28;20417;-78
2022/06/29 01:46:21;;;;;;;7.22;5.00;;;18.90;99.90;;;;;;6915173;28;20518;-79
2022/06/29 01:49:43;;;;;;;7.97;5.28;;;18.90;99.90;;;;;;6917563;28;20432;-78
2022/06/29 01:53:05;;;;;;;9.53;5.30;;;18.80;99.90;;;;;;6916724;28;20468;-78
2022/06/29 01:56:29;;;;;;;7.72;5.00;;;18.70;99.90;;;;;;6915774;28;20439;-78
2022/06/29 01:59:51;;;;;;;7.53;4.60;;;18.60;99.90;;;;;;6916302;28;20946;-77
2022/06/29 02:03:13;;;;;;;6.75;4.97;;;18.60;99.90;;;;;;6916427;28;20483;-76
2022/06/29 02:06:35;;;;;;;9.70;5.28;;;18.60;99.90;;;;;;6915873;28;20499;-78
2022/06/29 02:09:57;;;;;;;6.45;4.57;;;18.60;99.90;;;;;;6915707;28;20475;-80
2022/06/29 02:13:20;;;;;;;7.13;4.95;;;18.50;99.90;;;;;;6916672;28;20480;-80
2022/06/29 02:16:42;;;;;;;6.90;5.00;;;18.50;99.90;;;;;;6915400;28;20530;-77
2022/06/29 02:20:06;;;;;;;7.63;4.90;;;18.50;99.90;;;;;;6917303;28;20428;-79
2022/06/29 02:23:28;;;;;;;7.33;4.77;;;18.60;99.90;;;;;;6917981;28;20436;-78
2022/06/29 02:26:50;;;;;;;7.00;4.38;;;18.60;99.90;;;;;;6915894;28;20433;-79
2022/06/29 02:30:15;;;;;;;5.70;3.90;;;18.70;99.90;;;;;;6915426;28;20938;-77
2022/06/29 02:37:17;;;;;;;6.60;4.40;;;18.60;99.90;;;;;;6916918;28;20429;-78
2022/06/29 02:40:39;;;;;;;7.17;4.10;;;18.70;99.90;;;;;;6915716;28;20433;-75
2022/06/29 02:44:01;;;;;;;6.28;4.10;;;18.70;99.90;;;;;;6916003;28;20475;-77
2022/06/29 02:47:24;;;;;;;7.40;4.25;;;18.70;99.90;;;;;;6915852;28;20893;-78
2022/06/29 02:50:46;;;;;;;7.15;4.90;;;18.70;99.90;;;;;;6914263;28;20440;-76
2022/06/29 02:54:08;;;;;;;6.40;4.60;;;18.60;99.90;;;;;;6907560;28;21000;-78
2022/06/29 02:57:30;;;;;;;6.95;4.60;;;18.60;99.90;;;;;;6915586;28;20451;-78
2022/06/29 03:00:53;;;;;;;8.20;4.87;;;18.60;99.90;;;;;;6914560;28;20995;-79
2022/06/29 03:04:16;;;;;;;6.40;4.63;;;18.60;99.90;;;;;;6915096;28;20432;-79
2022/06/29 03:07:38;;;;;;;6.85;4.60;;;18.60;99.90;;;;;;6915684;28;20902;-77
2022/06/29 03:11:00;;;;;;;7.28;4.68;;;18.70;99.90;;;;;;6916131;28;20562;-77
2022/06/29 03:14:22;;;;;;;7.35;4.63;;;18.70;99.90;;;;;;6914876;28;20548;-78
2022/06/29 03:17:44;;;;;;;6.90;4.68;;;18.70;99.90;;;;;;6915750;28;20456;-79
2022/06/29 03:21:08;;;;;;;6.07;4.63;;;18.70;99.90;;;;;;6913534;28;20495;-79
2022/06/29 03:24:30;;;;;;;6.90;4.60;;;18.70;99.90;;;;;;6915480;28;20436;-79
2022/06/29 03:27:52;;;;;;;6.85;4.38;;;18.70;99.90;;;;;;6914101;28;20475;-80
2022/06/29 03:31:14;;;;;;;6.68;4.43;;;18.70;99.90;;;;;;6913856;28;20874;-78
2022/06/29 03:34:36;;;;;;;5.63;3.97;;;18.70;99.90;;;;;;6915076;28;20452;-78
2022/06/29 03:37:59;;;;;;;6.68;4.10;;;18.70;99.90;;;;;;6914713;28;20432;-80
2022/06/29 03:41:21;;;;;;;6.35;4.25;;;18.70;99.90;;;;;;6908521;28;20468;-80
2022/06/29 03:44:43;;;;;;;7.05;4.38;;;18.70;99.90;;;;;;6888163;28;20441;-80
2022/06/29 03:48:06;;;;;;;7.20;4.20;;;18.70;99.90;;;;;;6887921;28;20454;-79
2022/06/29 03:51:28;;;;;;;6.72;4.35;;;18.70;99.90;;;;;;6887489;28;20445;-78
2022/06/29 03:54:52;;;;;;;6.67;4.53;;;18.70;99.90;;;;;;6917613;28;20513;-79
2022/06/29 03:58:14;;;;;;;5.55;4.30;;;18.60;99.90;;;;;;6915999;28;20437;-78
2022/06/29 04:01:36;;;;;;;5.70;4.10;;;18.50;99.90;;;;;;6915436;28;20846;-78
2022/06/29 04:04:58;;;;;;;6.72;4.80;;;18.50;99.90;;;;;;6914951;28;20468;-78
2022/06/29 04:08:20;;;;;;;7.95;5.22;;;18.40;99.90;;;;;;6913152;28;20436;-77
2022/06/29 04:11:49;;;;;;;7.22;4.50;;;18.40;99.90;;;;;;6913861;28;20949;-80
2022/06/29 04:15:12;;;;;;;6.43;4.72;;;18.50;99.90;;;;;;6913950;28;20441;-79
2022/06/29 04:18:34;;;;;;;7.50;4.60;;;18.50;99.90;;;;;;6913807;28;20871;-78
2022/06/29 04:21:56;;;;;;;6.68;4.30;;;18.60;99.90;;;;;;6914942;28;20471;-78
2022/06/29 04:25:18;;;;;;;6.57;4.60;;;18.60;99.90;;;;;;6913784;28;20428;-80
2022/06/29 04:28:42;;;;;;;5.97;4.30;;;18.70;99.90;;;;;;6913832;28;20476;-79
2022/06/29 04:32:05;;;;;;;6.17;4.63;;;18.50;99.90;;;;;;6914236;28;20433;-79
2022/06/29 04:35:27;;;;;;;6.80;4.95;;;18.50;99.90;;;;;;6913736;28;20925;-80
2022/06/29 04:38:49;;;;;;;7.07;4.70;;;18.40;99.90;;;;;;6913489;28;20439;-80
2022/06/29 04:42:11;;;;;;;6.78;4.60;;;18.40;99.90;;;;;;6914129;28;20429;-80
2022/06/29 04:49:15;;;;;;;7.00;4.80;;;18.50;99.90;;;;;;6913400;28;20421;-80
2022/06/29 04:52:37;;;;;;;7.97;4.47;;;18.50;99.90;;;;;;6913751;28;20432;-79
2022/06/29 04:55:59;;;;;;;7.90;4.60;;;18.60;99.90;;;;;;6913245;28;20861;-80
2022/06/29 04:59:21;;;;;;;6.53;4.40;;;18.60;99.90;;;;;;6913667;28;20437;-79
2022/06/29 05:02:44;;;;;;;6.55;4.25;;;18.70;99.90;;;;;;6912242;28;20436;-77
2022/06/29 05:06:06;;;;;;;5.97;4.28;;;18.70;99.90;;;;;;6913393;28;20472;-79
2022/06/29 05:09:29;;;;;;;6.50;4.07;;;18.80;99.90;;;;;;6913089;28;20473;-79
2022/06/29 05:12:51;;;;;;;8.10;4.53;;;18.80;99.90;;;;;;6913305;28;20957;-78
2022/06/29 05:16:13;;;;;;;7.20;4.63;;;18.80;99.90;;;;;;6913549;28;20576;-78
2022/06/29 05:19:36;;;;;;;7.30;4.80;;;18.70;99.90;;;;;;6913100;28;20464;-79
2022/06/29 05:22:58;;;;;;;7.15;5.00;;;18.60;99.90;;;;;;6913125;28;20488;-79
2022/06/29 05:26:20;;;;;;;6.93;5.10;;;18.60;99.90;;;;;;6913125;28;20436;-78
2022/06/29 05:29:42;;;;;;;7.30;5.00;;;18.60;99.90;;;;;;6912349;28;20468;-77
2022/06/29 05:33:05;;;;;;;7.65;5.55;;;18.60;99.90;;;;;;6912836;28;20432;-78
2022/06/29 05:36:28;;;;;;;8.27;5.22;;;18.70;99.90;;;;;;6914688;28;20476;-81
2022/06/29 05:39:50;;;;;;;9.18;5.30;;;18.70;99.90;;;;;;6917022;28;20425;-79
2022/06/29 05:43:12;;;;;;;9.50;5.63;;;18.60;99.90;;;;;;6917411;28;20436;-79
2022/06/29 05:46:34;;;;;;;8.50;5.43;;;18.60;99.90;;;;;;6916698;28;20460;-79
2022/06/29 05:49:57;;;;;;;7.60;5.25;;;18.60;99.90;;;;;;6916717;28;20471;-80
2022/06/29 05:53:20;;;;;;;8.17;5.60;;;18.60;99.90;;;;;;6916816;28;20432;-78
2022/06/29 05:56:42;;;;;;;7.38;5.13;;;18.60;99.90;;;;;;6916398;28;20476;-81
2022/06/29 06:00:06;;;;;;;7.95;5.28;;;18.70;99.90;;;;;;6916370;28;20465;-79
2022/06/29 06:03:28;;;;;;;7.60;5.30;;;18.70;99.90;;;;;;6916501;28;20464;-78
2022/06/29 06:06:51;;;;;;;10.73;5.60;;;18.80;99.90;;;;;;6916244;28;20771;-78
2022/06/29 06:10:14;;;;;;;7.50;5.10;;;18.80;99.90;;;;;;6916303;28;20440;-79
2022/06/29 06:13:37;;;;;;;7.13;5.30;;;18.80;99.90;;;;;;6916454;28;20429;-79
2022/06/29 06:16:59;;;;;;;8.10;5.50;;;18.70;99.90;;;;;;6916004;28;20455;-79
2022/06/29 06:20:21;;;;;;;8.15;5.55;;;18.70;99.90;;;;;;6917022;28;20436;-79
2022/06/29 06:23:43;;;;;;;8.27;5.33;;;18.70;99.90;;;;;;6915986;28;20668;-80
2022/06/29 06:27:07;;;;;;;7.80;5.72;;;18.70;99.90;;;;;;6916166;28;20433;-79
2022/06/29 06:30:29;;;;;;;7.30;5.57;;;18.80;99.90;;;;;;6915960;28;20468;-81
2022/06/29 06:33:51;;;;;;;9.18;5.90;;;18.90;99.90;;;;;;6915485;28;20465;-78
2022/06/29 06:37:13;;;;;;;6.88;5.60;;;19.00;99.90;;;;;;6915774;28;20455;-81
2022/06/29 06:44:16;;;;;;;8.98;5.47;;;19.20;99.90;;;;;;6915415;28;20425;-78
2022/06/29 06:47:38;;;;;;;13.13;5.57;;;19.20;99.90;;;;;;6915131;28;20548;-79
2022/06/29 06:51:00;;;;;;;7.93;5.30;;;19.30;99.90;;;;;;6915260;28;20467;-80
2022/06/29 06:54:22;;;;;;;7.57;5.20;;;19.50;99.90;;;;;;6915167;28;20480;-79
2022/06/29 06:57:44;;;;;;;10.15;5.53;;;19.50;99.90;;;;;;6915052;28;20429;-80
2022/06/29 07:01:09;;;;;;;7.78;5.38;;;19.70;99.90;;;;;;6914913;28;20925;-80
2022/06/29 07:04:31;;;;;;;7.65;5.20;;;19.70;99.90;;;;;;6914725;28;20488;-79
2022/06/29 07:07:53;;;;;;;7.93;5.35;;;19.80;99.90;;;;;;6914822;28;20475;-78
2022/06/29 07:11:15;;;;;;;7.05;5.20;;;19.80;99.90;;;;;;6914611;28;20476;-80
2022/06/29 07:14:37;;;;;;;8.15;5.40;;;19.90;99.90;;;;;;6914898;28;20937;-78
2022/06/29 07:18:01;;;;;;;7.43;5.15;;;20.00;99.90;;;;;;6916374;28;20460;-79
2022/06/29 07:21:23;;;;;;;7.10;5.45;;;20.00;99.90;;;;;;6919531;28;20432;-80
2022/06/29 07:24:45;;;;;;;8.27;5.18;;;20.10;99.90;;;;;;6914482;28;20428;-78
2022/06/29 07:28:07;;;;;;;9.10;5.20;;;20.10;99.90;;;;;;6914642;28;20444;-76
2022/06/29 07:31:29;;;;;;;8.00;5.22;;;20.10;99.90;;;;;;6915195;28;20461;-73
2022/06/29 07:34:53;;;;;;;7.30;5.22;;;20.30;99.90;;;;;;6914879;28;20441;-76
2022/06/29 07:38:15;;;;;;;11.98;5.60;;;20.30;99.90;;;;;;6920653;28;20468;-76
2022/06/29 07:41:37;;;;;;;8.50;4.90;;;20.40;99.90;;;;;;6910877;28;20434;-76
2022/06/29 07:44:59;;;;;;;12.05;5.18;;;20.50;99.90;;;;;;6901002;28;20440;-76
2022/06/29 07:48:21;;;;;;;7.30;4.70;;;20.60;99.90;;;;;;6917462;28;20440;-76
2022/06/29 07:51:44;;;;;;;7.43;5.25;;;20.70;99.90;;;;;;6914842;28;20530;-76
2022/06/29 07:55:07;;;;;;;7.32;4.80;;;20.80;99.90;;;;;;6912502;28;20484;-76
2022/06/29 07:58:29;;;;;;;6.28;4.70;;;20.90;99.90;;;;;;6912750;28;20443;-75
2022/06/29 08:01:51;;;;;;;7.93;4.90;;;21.10;99.90;;;;;;6913307;28;20459;-74
2022/06/29 08:05:13;;;;;;;7.85;5.00;;;21.10;99.90;;;;;;6912891;28;20838;-73
2022/06/29 08:08:37;;;;;;;6.30;4.70;;;21.10;99.90;;;;;;6922185;28;20425;-75
2022/06/29 08:11:59;;;;;;;6.30;4.47;;;21.20;99.90;;;;;;6913175;28;20471;-74
2022/06/29 08:15:21;;;;;;;6.32;4.60;;;21.20;99.90;;;;;;6901448;28;20461;-75
2022/06/29 08:18:44;;;;;;;6.43;4.43;;;21.30;99.90;;;;;;6882786;28;20943;-75
2022/06/29 08:22:06;;;;;;;7.03;4.88;;;21.50;99.90;;;;;;6903748;28;20436;-76
2022/06/29 08:25:31;;;;;;;8.07;4.72;;;21.60;99.90;;;;;;6909640;28;20479;-74
2022/06/29 08:28:53;;;;;;;6.90;4.57;;;21.70;99.90;;;;;;6908586;28;20444;-76
2022/06/29 08:32:15;;;;;;;7.15;4.40;;;21.80;99.90;;;;;;6909326;28;20484;-74
2022/06/29 08:35:37;;;;;;;6.50;4.53;;;21.90;99.90;;;;;;6908320;28;20850;-76
2022/06/29 08:39:01;;;;;;;8.38;5.07;;;22.00;99.90;;;;;;6909220;28;20484;-74
2022/06/29 08:42:28;;;;;;;8.40;4.65;;;22.10;99.90;;;;;;6912244;28;20945;-76
2022/06/29 08:45:52;;;;;;;10.38;5.20;;;22.20;99.90;;;;;;6910803;28;20479;-75
2022/06/29 08:49:14;;;;;;;6.88;4.88;;;22.20;99.90;;;;;;6908273;28;20495;-76
2022/06/29 08:52:37;;;;;;;7.60;4.80;;;22.30;99.80;;;;;;6909174;28;20479;-75
2022/06/29 08:56:02;;;;;;;7.53;4.90;;;22.30;99.90;;;;;;6908563;28;20487;-76
2022/06/29 08:59:26;;;;;;;8.65;5.03;;;22.30;99.60;;;;;;6909117;28;20468;-76
2022/06/29 09:02:48;;;;;;;6.75;4.30;;;22.40;99.60;;;;;;6909165;28;20467;-75
2022/06/29 09:06:10;;;;;;;6.90;4.68;;;22.50;99.90;;;;;;6905888;28;20441;-77
2022/06/29 09:09:32;;;;;;;7.53;5.00;;;22.70;99.90;;;;;;6909514;28;20479;-76
2022/06/29 09:12:57;;;;;;;6.77;4.67;;;22.70;99.80;;;;;;6914140;28;20476;-75
2022/06/29 09:16:21;;;;;;;5.97;4.40;;;22.80;99.20;;;;;;6914228;28;20922;-76
2022/06/29 09:19:47;;;;;;;8.80;4.85;;;22.90;98.50;;;;;;6913506;28;20440;-75
2022/06/29 09:23:10;;;;;;;6.80;4.40;;;23.00;98.30;;;;;;6905567;28;20502;-75
2022/06/29 09:26:32;;;;;;;6.00;4.10;;;23.10;97.70;;;;;;6913800;28;20428;-76
2022/06/29 09:29:55;;;;;;;8.93;4.80;;;23.10;97.20;;;;;;6914392;28;20926;-75
2022/06/29 09:33:18;;;;;;;5.93;4.40;;;23.20;96.00;;;;;;6912830;28;20444;-76
2022/06/29 09:36:55;;;;;;;5.90;4.17;;;23.10;96.20;;;;;;6910258;28;20539;-75
2022/06/29 09:40:17;;;;;;;4.82;3.90;;;23.20;96.10;;;;;;6913022;28;20437;-76
2022/06/29 09:43:42;;;;;;;5.43;3.97;;;23.30;96.60;;;;;;6912832;28;20471;-76
2022/06/29 09:47:08;;;;;;;6.72;3.72;;;23.50;96.60;;;;;;6910979;28;20475;-74
2022/06/29 09:50:34;;;;;;;10.52;4.28;;;23.50;96.30;;;;;;6913748;28;20429;-76
2022/06/29 09:54:04;;;;;;;5.88;3.80;;;23.70;96.20;;;;;;6913708;28;20432;-74
2022/06/29 09:57:30;;;;;;;5.83;3.73;;;23.60;96.40;;;;;;6912769;28;20532;-76
2022/06/29 10:04:38;;;;;;;6.15;3.13;;;23.90;96.20;;;;;;6912490;28;20428;-76
2022/06/29 10:08:01;;;;;;;5.70;2.93;;;23.80;95.90;;;;;;6910192;28;20500;-76
2022/06/29 10:15:33;;;;;;;6.20;2.90;;;23.80;95.60;;;;;;6912825;28;20436;-74
2022/06/29 10:19:15;;;;;;;6.20;2.93;;;23.90;95.00;;;;;;6912151;28;20440;-76
2022/06/29 10:22:37;;;;;;;5.32;2.60;;;24.00;94.60;;;;;;6912092;28;20433;-75
2022/06/29 10:26:02;;;;;;;4.80;2.80;;;24.10;93.80;;;;;;6911788;28;20481;-73
2022/06/29 10:29:37;;;;;;;5.27;3.00;;;24.00;94.30;;;;;;6912388;28;20525;-75
2022/06/29 10:33:35;;;;;;;5.30;2.70;;;24.20;94.80;;;;;;6911321;28;20794;-76
2022/06/29 10:37:00;;;;;;;6.95;4.55;;;24.40;95.70;;;;;;6913480;28;20448;-76
2022/06/29 10:40:24;;;;;;;6.07;3.40;;;24.50;95.20;;;;;;6912039;28;20890;-76
2022/06/29 10:43:51;;;;;;;4.75;3.17;;;24.40;94.50;;;;;;6912197;28;20429;-73
2022/06/29 10:47:22;;;;;;;5.20;3.03;;;24.50;94.80;;;;;;6889143;28;20450;-76
2022/06/29 10:50:46;;;;;;;5.10;3.30;;;24.50;94.70;;;;;;6883627;28;20741;-76
2022/06/29 10:54:23;;;;;;;6.78;3.42;;;24.40;94.40;;;;;;6884583;28;20915;-74
2022/06/29 10:57:47;;;;;;;5.65;3.45;;;24.50;95.10;;;;;;6882829;28;20482;-75
2022/06/29 11:01:10;;;;;;;5.35;3.20;;;24.50;95.10;;;;;;6882592;28;20478;-74
2022/06/29 11:04:32;;;;;;;8.13;3.40;;;24.50;95.00;;;;;;6884127;28;20474;-74
2022/06/29 11:18:58;;;;;;;5.30;3.47;;;24.50;95.30;;;;;;6884347;28;20426;-76
2022/06/29 11:22:20;;;;;;;5.07;3.80;;;24.50;95.20;;;;;;6883829;28;20439;-75
2022/06/29 11:25:46;;;;;;;6.07;3.88;;;24.70;95.50;;;;;;6882254;28;20438;-76
2022/06/29 11:29:09;;;;;;;6.03;3.90;;;24.80;94.50;;;;;;6883740;28;20900;-74
2022/06/29 11:32:39;;;;;;;8.23;5.67;;;24.80;95.30;;;;;;6882904;28;20438;-76
2022/06/29 11:36:07;;;;;;;5.80;3.70;;;24.80;95.20;;;;;;6882652;28;20442;-77
2022/06/29 11:39:29;;;;;;;6.03;3.60;;;24.80;94.50;;;;;;6881494;28;20449;-74
2022/06/29 11:43:04;;;;;;;5.10;3.70;;;24.90;94.00;;;;;;6883023;28;20503;-76
2022/06/29 11:46:27;;;;;;;5.67;3.67;;;25.00;94.30;;;;;;6896602;28;20839;-75
2022/06/29 11:49:49;;;;;;;6.70;3.67;;;25.00;94.10;;;;;;6901872;28;20446;-76
2022/06/29 11:53:13;;;;;;;7.20;3.67;;;25.20;93.90;;;;;;6882007;28;20928;-74
2022/06/29 11:56:35;;;;;;;5.88;3.72;;;25.30;93.10;;;;;;6910270;28;20444;-75
2022/06/29 12:00:06;;;;;;;5.72;3.88;;;25.40;93.70;;;;;;6911017;28;20472;-75
2022/06/29 12:03:28;;;;;;;5.78;3.38;;;25.40;93.00;;;;;;6892871;28;20465;-74
2022/06/29 12:06:50;;;;;;;5.35;3.30;;;25.50;93.30;;;;;;6908136;28;20437;-74
2022/06/29 12:10:15;;;;;;;5.60;3.50;;;25.60;93.40;;;;;;6910439;28;20444;-75
2022/06/29 12:13:37;;;;;;;6.53;3.60;;;25.60;94.80;;;;;;6902145;28;20438;-75
2022/06/29 12:16:59;;;;;;;5.40;3.10;;;25.70;93.60;;;;;;6882711;28;20937;-76
2022/06/29 12:20:21;;;;;;;6.80;3.50;;;26.00;93.10;;;;;;6882759;28;21090;-74
2022/06/29 12:23:43;;;;;;;6.20;3.50;;;26.20;91.00;;;;;;6882892;28;20469;-74
2022/06/29 12:27:07;;;;;;;5.67;3.33;;;26.30;91.50;;;;;;6899292;28;20440;-75
2022/06/29 12:30:29;;;;;;;7.00;3.63;;;26.40;91.10;;;;;;6891611;28;20493;-74
2022/06/29 12:33:51;;;;;;;7.10;4.43;;;26.40;92.10;;;;;;6881619;28;20461;-75
2022/06/29 12:37:13;;;;;;;5.80;3.40;;;26.60;92.30;;;;;;6881422;28;20469;-75
2022/06/29 12:40:35;;;;;;;5.75;3.63;;;26.80;91.20;;;;;;6889373;28;20459;-76
2022/06/29 12:44:02;;;;;;;6.10;3.85;;;26.80;90.90;;;;;;6909803;28;20425;-75
2022/06/29 12:47:24;;;;;;;6.60;3.22;;;26.90;91.00;;;;;;6910067;28;20445;-75
2022/06/29 12:50:46;;;;;;;5.97;3.20;;;27.00;91.20;;;;;;6887788;28;20472;-75
2022/06/29 12:54:08;;;;;;;6.13;3.30;;;27.00;89.90;;;;;;6887820;28;20924;-75
2022/06/29 12:57:30;;;;;;;4.97;3.10;;;27.20;87.80;;;;;;6887635;28;20539;-76
2022/06/29 13:00:53;;;;;;;6.68;3.10;;;27.20;87.50;;;;;;6914384;28;20479;-74
2022/06/29 13:04:15;;;;;;;6.07;3.50;;;27.40;86.00;;;;;;6914867;28;20459;-75
2022/06/29 13:07:37;;;;;;;6.97;3.47;;;27.50;86.70;;;;;;6912760;28;20467;-75
2022/06/29 13:11:01;;;;;;;7.03;3.40;;;27.70;86.20;;;;;;6899991;28;20468;-74
2022/06/29 13:14:23;;;;;;;5.40;2.80;;;27.70;88.60;;;;;;6888072;28;20442;-75
2022/06/29 13:17:47;;;;;;;7.07;3.10;;;27.90;87.30;;;;;;6887817;28;20541;-75
2022/06/29 13:21:09;;;;;;;6.43;3.13;;;28.00;82.70;;;;;;6887505;28;20528;-75
2022/06/29 13:24:31;;;;;;;7.17;3.40;;;27.90;82.00;;;;;;6886443;28;20441;-75
2022/06/29 13:27:53;;;;;;;6.90;3.40;;;28.00;83.10;;;;;;6886341;28;20950;-75
2022/06/29 13:31:15;;;;;;;17.90;4.10;;;28.10;82.20;;;;;;6906190;28;21003;-75
2022/06/29 13:34:39;;;;;;;6.93;3.30;;;28.40;79.40;;;;;;6913753;28;20480;-75
2022/06/29 13:38:02;;;;;;;10.02;4.72;;;28.60;77.60;;;;;;6914007;28;20440;-74
2022/06/29 13:41:25;;;;;;;7.03;2.83;;;28.70;77.60;;;;;;6889465;28;20434;-75
2022/06/29 13:44:47;;;;;;;5.82;3.00;;;28.70;78.30;;;;;;6887476;28;20478;-76
2022/06/29 13:48:09;;;;;;;7.40;3.30;;;28.60;77.60;;;;;;6914047;28;20467;-75
2022/06/29 13:51:33;;;;;;;5.70;3.10;;;28.60;77.50;;;;;;6913139;28;20433;-75
2022/06/29 13:54:55;;;;;;;6.25;3.15;;;28.60;80.10;;;;;;6913693;28;20432;-74
2022/06/29 13:58:17;;;;;;;5.40;3.08;;;28.90;77.60;;;;;;6905889;28;20507;-74
2022/06/29 14:01:39;;;;;;;7.35;3.35;;;29.10;76.60;;;;;;6913375;28;20439;-74
2022/06/29 14:05:02;;;;;;;5.78;3.20;;;29.30;77.60;;;;;;6912838;28;20436;-76
2022/06/29 14:08:25;;;;;;;5.85;3.03;;;29.60;75.20;;;;;;6894539;28;20532;-75
2022/06/29 14:11:47;;;;;;;5.15;3.10;;;29.60;76.80;;;;;;6882112;28;20533;-77
2022/06/29 14:15:10;;;;;;;5.82;3.03;;;29.90;76.60;;;;;;6881914;28;20446;-76
2022/06/29 14:18:33;;;;;;;6.90;3.40;;;30.00;73.60;;;;;;6911890;28;20455;-79
2022/06/29 14:21:55;;;;;;;6.38;2.80;;;29.60;74.20;;;;;;6890329;28;20557;-79
2022/06/29 14:25:19;;;;;;;6.95;3.30;;;29.40;75.30;;;;;;6889262;28;20438;-78
2022/06/29 14:28:41;;;;;;;6.95;3.00;;;29.00;74.70;;;;;;6908752;28;21009;-79
2022/06/29 14:32:04;;;;;;;5.65;3.13;;;29.20;75.00;;;;;;6896235;28;20441;-77
2022/06/29 14:35:26;;;;;;;6.53;3.42;;;29.20;75.80;;;;;;6885748;28;20441;-79
2022/06/29 14:38:48;;;;;;;6.80;3.30;;;29.10;73.60;;;;;;6883960;28;20807;-78
2022/06/29 14:42:12;;;;;;;6.38;3.30;;;29.00;74.30;;;;;;6880475;28;20443;-77
2022/06/29 14:45:34;;;;;;;6.32;3.25;;;28.90;74.90;;;;;;6912069;28;20475;-73
2022/06/29 14:48:56;;;;;;;5.60;3.17;;;29.20;76.00;;;;;;6911860;28;20439;-78
2022/06/29 14:52:18;;;;;;;7.82;3.33;;;29.00;75.20;;;;;;6905553;28;20534;-77
2022/06/29 14:55:40;;;;;;;4.70;2.90;;;29.00;76.00;;;;;;6882308;28;20943;-75
2022/06/29 14:59:04;;;;;;;5.10;2.90;;;29.10;75.90;;;;;;6890486;28;20487;-78
2022/06/29 15:02:26;;;;;;;4.95;2.90;;;29.30;75.80;;;;;;6891273;28;20950;-76
2022/06/29 15:05:48;;;;;;;10.45;3.92;;;29.40;75.00;;;;;;6882691;28;21015;-78
2022/06/29 15:09:10;;;;;;;5.53;3.33;;;29.30;75.90;;;;;;6879083;28;20471;-79
2022/06/29 15:12:33;;;;;;;5.22;3.28;;;29.20;76.10;;;;;;6883678;28;20509;-78
2022/06/29 15:15:56;;;;;;;5.40;3.30;;;29.20;74.20;;;;;;6882792;28;20486;-77
2022/06/29 15:19:19;;;;;;;6.82;3.30;;;29.00;74.70;;;;;;6883215;28;20481;-79
2022/06/29 15:22:41;;;;;;;6.97;3.45;;;28.80;74.10;;;;;;6881069;28;20589;-77
2022/06/29 15:26:03;;;;;;;13.30;8.07;;;29.00;75.10;;;;;;6882159;28;20480;-77
2022/06/29 15:29:25;;;;;;;6.63;3.67;;;29.30;74.40;;;;;;6880676;28;20847;-79
2022/06/29 15:32:48;;;;;;;5.00;2.85;;;29.40;75.40;;;;;;6882645;28;20467;-77
2022/06/29 15:39:53;;;;;;;7.53;2.95;;;29.60;74.40;;;;;;6864162;28;20916;-78
2022/06/29 15:43:15;;;;;;;7.03;2.93;;;29.70;73.60;;;;;;6884064;28;20465;-78
2022/06/29 15:46:37;;;;;;;7.05;2.95;;;29.80;72.80;;;;;;6898678;28;20490;-78
2022/06/29 15:50:00;;;;;;;14.75;9.27;;;29.90;71.60;;;;;;6890192;28;20468;-78
2022/06/29 15:57:02;;;;;;;6.05;2.80;;;30.00;70.40;;;;;;6881155;28;20446;-80
2022/06/29 16:00:24;;;;;;;5.50;2.70;;;29.90;71.30;;;;;;6883381;28;20462;-79
2022/06/29 16:03:46;;;;;;;5.25;2.80;;;30.30;69.80;;;;;;6881027;28;20463;-79
2022/06/29 16:07:09;;;;;;;4.72;2.70;;;30.50;67.80;;;;;;6881800;28;20449;-77
2022/06/29 16:10:32;;;;;;;5.32;3.00;;;30.50;68.70;;;;;;6883328;28;20497;-80
2022/06/29 16:13:54;;;;;;;6.85;2.90;;;30.20;67.50;;;;;;6876897;28;20440;-78
2022/06/29 16:17:16;;;;;;;5.68;2.80;;;30.40;68.70;;;;;;6890894;28;20474;-78
2022/06/29 16:20:38;;;;;;;5.85;2.97;;;30.50;68.40;;;;;;6886667;28;20916;-79
2022/06/29 16:24:01;;;;;;;5.93;2.70;;;30.50;69.30;;;;;;6886360;28;20468;-78
2022/06/29 16:27:23;;;;;;;6.88;2.85;;;30.40;66.90;;;;;;6897875;28;20542;-78
2022/06/29 16:30:45;;;;;;;5.57;2.80;;;30.40;67.40;;;;;;6867910;28;20490;-78
2022/06/29 16:34:07;;;;;;;7.30;2.75;;;30.30;68.10;;;;;;6904553;28;20476;-78
2022/06/29 16:37:29;;;;;;;5.53;2.53;;;30.00;67.20;;;;;;6883949;28;20584;-78
2022/06/29 16:40:53;;;;;;;4.65;2.60;;;29.90;69.00;;;;;;6883273;28;20480;-78
2022/06/29 16:44:15;;;;;;;5.25;2.75;;;29.90;70.20;;;;;;6888674;28;20479;-78
2022/06/29 16:47:37;;;;;;;5.88;2.80;;;30.10;69.60;;;;;;6888448;28;20448;-79
2022/06/29 16:50:59;;;;;;;5.83;2.80;;;30.10;70.10;;;;;;6879832;28;20499;-78
2022/06/29 16:54:21;;;;;;;5.50;2.80;;;30.10;69.70;;;;;;6880246;28;20443;-77
2022/06/29 16:57:45;;;;;;;5.27;2.70;;;30.30;70.50;;;;;;6907579;28;20539;-80
2022/06/29 17:01:07;;;;;;;4.85;3.00;;;30.40;68.60;;;;;;6895054;28;20836;-78
2022/06/29 17:04:29;;;;;;;4.97;2.60;;;30.50;68.50;;;;;;6882467;28;20454;-78
2022/06/29 17:07:51;;;;;;;5.03;2.72;;;30.70;69.60;;;;;;6894115;28;20478;-77
2022/06/29 17:11:13;;;;;;;5.85;2.85;;;30.70;68.40;;;;;;6901450;28;20472;-76
2022/06/29 17:14:37;;;;;;;5.43;2.70;;;30.70;67.90;;;;;;6889245;28;20462;-77
2022/06/29 17:17:59;;;;;;;5.75;3.38;;;30.80;67.90;;;;;;6883895;28;20450;-77
2022/06/29 17:21:21;;;;;;;5.63;2.95;;;30.70;68.10;;;;;;6889274;28;20472;-77
2022/06/29 17:24:43;;;;;;;7.18;2.90;;;30.70;69.20;;;;;;6908984;28;20491;-78
2022/06/29 17:28:05;;;;;;;5.40;2.80;;;30.70;68.30;;;;;;6907946;28;20440;-79
2022/06/29 17:31:29;;;;;;;5.60;2.90;;;30.50;68.10;;;;;;6893851;28;20484;-79
2022/06/29 17:34:51;;;;;;;5.13;2.90;;;30.50;67.40;;;;;;6911083;28;20436;-81
2022/06/29 17:38:14;;;;;;;6.30;2.67;;;30.30;67.90;;;;;;6888943;28;20440;-78
2022/06/29 17:41:36;;;;;;;6.30;4.15;;;30.30;69.10;;;;;;6894787;28;20976;-77
2022/06/29 17:44:58;;;;;;;5.45;3.05;;;30.40;68.80;;;;;;6898371;28;20520;-79
2022/06/29 17:48:22;;;;;;;5.20;2.80;;;30.40;68.00;;;;;;6910246;28;20432;-77
2022/06/29 17:51:44;;;;;;;5.88;2.67;;;30.50;67.40;;;;;;6912993;28;20472;-78
2022/06/29 17:55:08;;;;;;;5.40;2.67;;;30.60;66.90;;;;;;6912917;28;20930;-77
2022/06/29 17:58:30;;;;;;;6.05;2.80;;;30.70;66.70;;;;;;6912186;28;20440;-80
2022/06/29 18:01:53;;;;;;;6.57;2.60;;;30.60;65.90;;;;;;6908804;28;20578;-78
2022/06/29 18:05:16;;;;;;;5.18;2.65;;;30.50;66.30;;;;;;6890616;28;20798;-78
2022/06/29 18:08:39;;;;;;;5.13;2.67;;;30.60;65.80;;;;;;6905890;28;20466;-74
2022/06/29 18:12:01;;;;;;;5.63;2.90;;;30.60;65.30;;;;;;6890380;28;20497;-79